Time;durP1;ratioP1;P1;durP2;ratioP2;P2;SDS_P1;SDS_P2;PMS_P1;PMS_P2;Temp;Humidity;BMP_temperature;BMP_pressure;BME280_temperature;BME280_humidity;BME280_pressure;Samples;Min_cycle;Max_cycle;Signal;HPM_P1;HPM_P2
2023/12/16 00:02:20;;;;;;;6.47;5.13;;;;;;;6.84;70.02;98338.63;5028865;28;20182;-70
2023/12/16 00:04:45;;;;;;;4.93;4.43;;;;;;;6.83;70.31;98331.69;5027728;28;20543;-69
2023/12/16 00:07:11;;;;;;;5.37;4.80;;;;;;;6.86;69.59;98343.88;5026963;28;20255;-70
2023/12/16 00:09:36;;;;;;;5.00;3.97;;;;;;;6.86;69.46;98342.13;5027848;28;20210;-70
2023/12/16 00:12:02;;;;;;;4.30;3.83;;;;;;;6.70;70.25;98343.81;5029498;28;20278;-70
2023/12/16 00:14:28;;;;;;;4.70;4.30;;;;;;;6.75;70.47;98351.66;5029367;28;20192;-70
2023/12/16 00:16:53;;;;;;;4.17;3.77;;;;;;;6.74;70.24;98349.94;5025773;28;20184;-68
2023/12/16 00:19:18;;;;;;;5.10;4.10;;;;;;;6.81;69.44;98345.59;5028937;28;20211;-70
2023/12/16 00:21:44;;;;;;;6.17;4.47;;;;;;;6.76;69.30;98343.84;5011902;28;20203;-70
2023/12/16 00:24:09;;;;;;;6.50;4.40;;;;;;;6.73;69.76;98348.16;5029341;28;20196;-71
2023/12/16 00:26:35;;;;;;;20.13;4.60;;;;;;;6.76;70.50;98358.66;5028393;28;20265;-69
2023/12/16 00:29:00;;;;;;;7.63;5.00;;;;;;;6.76;70.45;98362.13;5025312;28;20168;-70
2023/12/16 00:31:25;;;;;;;6.97;6.10;;;;;;;6.86;70.17;98370.84;5010586;28;20196;-70
2023/12/16 00:33:51;;;;;;;8.50;5.80;;;;;;;6.87;70.82;98371.69;5029460;28;20178;-69
2023/12/16 00:36:16;;;;;;;10.03;6.33;;;;;;;6.86;71.00;98365.63;5027977;28;20556;-69
2023/12/16 00:38:42;;;;;;;11.93;7.53;;;;;;;6.78;71.67;98368.22;5028085;28;20218;-69
2023/12/16 00:41:07;;;;;;;11.20;7.10;;;;;;;6.90;71.25;98364.75;5027012;28;20282;-70
2023/12/16 00:43:33;;;;;;;7.73;6.80;;;;;;;6.97;70.42;98365.66;5028101;28;20179;-69
2023/12/16 00:45:58;;;;;;;13.50;7.77;;;;;;;6.86;71.00;98359.53;5029024;28;20187;-70
2023/12/16 00:48:24;;;;;;;8.40;6.63;;;;;;;6.85;71.23;98363.88;5028195;28;20222;-69
2023/12/16 00:50:49;;;;;;;8.20;6.60;;;;;;;6.70;71.24;98366.44;5027457;28;20199;-68
2023/12/16 00:53:14;;;;;;;7.90;5.60;;;;;;;6.65;71.95;98376.00;5027936;28;20237;-70
2023/12/16 00:55:40;;;;;;;5.93;5.33;;;;;;;6.64;72.10;98379.44;5028600;28;20191;-70
2023/12/16 00:58:06;;;;;;;9.70;6.43;;;;;;;6.47;72.70;98362.03;5028905;28;20203;-70
2023/12/16 01:00:32;;;;;;;7.67;6.30;;;;;;;6.56;72.18;98363.78;5031358;28;20210;-70
2023/12/16 01:02:58;;;;;;;9.20;7.80;;;;;;;6.35;73.87;98370.66;5049408;28;20524;-69
2023/12/16 01:05:24;;;;;;;9.40;8.23;;;;;;;6.46;73.43;98372.44;5038603;28;20183;-68
2023/12/16 01:07:49;;;;;;;11.93;9.23;;;;;;;6.34;73.97;98374.13;5028972;28;20429;-70
2023/12/16 01:10:15;;;;;;;11.23;9.50;;;;;;;6.47;73.78;98382.00;5028617;28;20450;-69
2023/12/16 01:12:40;;;;;;;11.47;10.27;;;;;;;6.48;73.79;98384.63;5029048;28;20171;-70
2023/12/16 01:15:06;;;;;;;12.00;8.77;;;;;;;6.61;72.84;98382.06;5028436;28;20179;-69
2023/12/16 01:17:33;;;;;;;11.67;10.30;;;;;;;6.44;74.06;98384.59;5027695;28;20561;-69
2023/12/16 01:19:58;;;;;;;10.93;8.93;;;;;;;6.64;73.41;98395.09;5027464;28;20457;-69
2023/12/16 01:22:24;;;;;;;11.10;8.63;;;;;;;6.77;72.69;98402.13;5026752;28;20423;-69
2023/12/16 01:24:49;;;;;;;13.03;10.30;;;;;;;6.62;72.83;98394.25;5027937;28;20176;-70
2023/12/16 01:27:14;;;;;;;10.90;9.43;;;;;;;6.62;73.19;98376.84;5027059;28;20179;-70
2023/12/16 01:29:40;;;;;;;15.57;10.33;;;;;;;6.67;72.80;98380.34;5024321;28;20217;-69
2023/12/16 01:32:07;;;;;;;13.60;9.60;;;;;;;6.72;72.87;98396.03;5026547;28;20325;-69
2023/12/16 01:34:32;;;;;;;14.77;10.67;;;;;;;6.56;73.38;98393.34;5028533;28;20179;-69
2023/12/16 01:36:58;;;;;;;14.67;9.70;;;;;;;6.54;73.32;98400.31;5028299;28;20445;-69
2023/12/16 01:39:23;;;;;;;12.43;10.50;;;;;;;6.68;73.26;98407.31;5028284;28;20290;-71
2023/12/16 01:41:49;;;;;;;11.73;9.30;;;;;;;6.56;73.55;98402.91;5026954;28;20192;-69
2023/12/16 01:44:14;;;;;;;14.53;10.13;;;;;;;6.67;72.78;98395.13;5029224;28;20287;-70
2023/12/16 01:46:40;;;;;;;12.97;9.50;;;;;;;6.36;74.52;98389.78;5028113;28;20234;-69
2023/12/16 01:49:05;;;;;;;12.53;9.53;;;;;;;6.18;74.70;98384.47;5029682;28;20175;-70
2023/12/16 01:51:32;;;;;;;13.27;10.43;;;;;;;6.07;75.42;98390.50;5023374;28;20218;-70
2023/12/16 01:53:58;;;;;;;12.13;9.63;;;;;;;6.10;75.08;98387.03;5030708;28;20180;-70
2023/12/16 01:56:24;;;;;;;12.57;10.53;;;;;;;5.85;75.86;98394.66;5008026;28;20477;-70
2023/12/16 01:58:50;;;;;;;13.53;9.40;;;;;;;5.95;75.77;98398.22;5028549;28;20936;-69
2023/12/16 02:01:16;;;;;;;12.93;9.90;;;;;;;5.92;76.11;98392.97;5028932;28;20199;-69
2023/12/16 02:03:44;;;;;;;11.50;9.17;;;;;;;6.09;75.35;98404.41;5027772;28;20551;-70
2023/12/16 02:06:09;;;;;;;11.17;9.60;;;;;;;6.25;74.79;98394.06;5027814;28;20442;-69
2023/12/16 02:08:36;;;;;;;10.27;9.13;;;;;;;6.14;75.09;98397.50;5027148;28;20433;-69
2023/12/16 02:11:01;;;;;;;11.63;10.07;;;;;;;6.21;74.49;98407.94;5009527;28;20203;-69
2023/12/16 02:13:27;;;;;;;14.60;9.93;;;;;;;6.35;74.64;98408.88;5009600;28;20437;-68
2023/12/16 02:15:52;;;;;;;13.50;10.50;;;;;;;6.31;74.11;98404.53;5027607;28;20180;-69
2023/12/16 02:18:18;;;;;;;16.80;10.60;;;;;;;6.46;74.03;98411.56;5026860;28;20273;-69
2023/12/16 02:20:43;;;;;;;13.43;10.30;;;;;;;6.32;74.48;98414.09;5022937;28;20207;-68
2023/12/16 02:23:16;;;;;;;15.43;10.80;;;;;;;6.37;73.89;98420.22;5026328;28;20253;-69
2023/12/16 02:25:42;;;;;;;15.40;10.67;;;;;;;6.41;74.23;98431.53;5019566;28;20259;-69
2023/12/16 02:28:08;;;;;;;12.90;10.60;;;;;;;6.40;74.18;98425.44;5028280;28;20410;-69
2023/12/16 02:30:34;;;;;;;13.43;10.43;;;;;;;6.38;74.17;98426.28;5026969;28;20476;-70
2023/12/16 02:32:59;;;;;;;11.43;9.30;;;;;;;6.39;74.07;98443.69;5026509;28;20198;-70
2023/12/16 02:35:24;;;;;;;14.37;10.80;;;;;;;6.47;73.67;98428.94;5027548;28;21192;-70
2023/12/16 02:37:50;;;;;;;15.00;10.00;;;;;;;6.50;74.10;98432.44;5026744;28;20219;-69
2023/12/16 02:40:15;;;;;;;17.50;10.97;;;;;;;6.60;73.61;98429.91;5027090;28;20238;-69
2023/12/16 02:42:41;;;;;;;14.77;10.70;;;;;;;6.57;73.66;98435.97;5026818;28;20180;-69
2023/12/16 02:45:07;;;;;;;11.50;9.70;;;;;;;6.53;73.82;98429.84;5027923;28;20174;-69
2023/12/16 02:47:32;;;;;;;13.00;9.70;;;;;;;6.64;72.81;98426.41;5027612;28;20194;-70
2023/12/16 02:49:57;;;;;;;11.93;10.10;;;;;;;6.50;73.52;98415.94;5026948;28;20262;-69
2023/12/16 02:52:23;;;;;;;15.00;10.60;;;;;;;6.51;73.72;98415.06;5018777;28;20219;-70
2023/12/16 02:54:48;;;;;;;12.83;10.67;;;;;;;6.59;72.87;98418.59;5024849;28;20176;-69
2023/12/16 02:57:14;;;;;;;10.83;8.80;;;;;;;6.62;73.31;98412.50;5019864;28;20290;-70
2023/12/16 02:59:39;;;;;;;9.63;8.70;;;;;;;6.67;73.14;98422.09;5025849;28;20238;-69
2023/12/16 03:02:04;;;;;;;10.83;7.50;;;;;;;6.61;73.25;98422.06;5026612;28;20199;-69
2023/12/16 03:04:30;;;;;;;12.33;9.10;;;;;;;6.70;73.06;98437.75;5026915;28;20193;-69
2023/12/16 03:06:55;;;;;;;9.10;8.20;;;;;;;6.71;72.71;98428.22;5025473;28;20642;-69
2023/12/16 03:09:20;;;;;;;9.47;7.67;;;;;;;6.73;72.83;98422.13;5025251;28;20214;-69
2023/12/16 03:11:46;;;;;;;11.37;7.50;;;;;;;6.91;71.62;98426.53;5026666;28;20330;-69
2023/12/16 03:14:11;;;;;;;8.00;7.30;;;;;;;6.74;71.76;98428.22;5027313;28;20187;-69
2023/12/16 03:16:37;;;;;;;11.50;7.30;;;;;;;6.68;72.26;98439.47;5024428;28;20658;-70
2023/12/16 03:19:02;;;;;;;9.93;6.73;;;;;;;6.73;72.14;98444.72;5021923;28;20725;-69
2023/12/16 03:21:29;;;;;;;11.20;6.67;;;;;;;6.66;72.03;98440.34;5030589;28;20218;-69
2023/12/16 03:23:55;;;;;;;10.63;7.00;;;;;;;6.65;72.48;98433.38;5030586;28;20570;-70
2023/12/16 03:26:21;;;;;;;8.40;6.90;;;;;;;6.62;72.71;98429.03;5029306;28;20474;-69
2023/12/16 03:28:47;;;;;;;10.33;7.50;;;;;;;6.57;72.38;98436.84;5027817;28;20434;-68
2023/12/16 03:31:12;;;;;;;11.33;6.33;;;;;;;6.39;73.71;98441.94;5030629;28;20773;-68
2023/12/16 03:33:37;;;;;;;8.07;6.80;;;;;;;6.39;73.33;98447.16;5028038;28;20270;-69
2023/12/16 03:36:03;;;;;;;7.60;5.97;;;;;;;6.36;73.31;98447.16;5033023;28;20215;-68
2023/12/16 03:38:28;;;;;;;9.90;6.00;;;;;;;6.35;73.31;98450.63;5032255;28;20257;-68
2023/12/16 03:40:54;;;;;;;8.20;5.80;;;;;;;6.37;73.36;98448.88;5029609;28;20222;-69
2023/12/16 03:43:20;;;;;;;6.87;6.17;;;;;;;6.58;72.82;98448.13;5041290;28;20190;-69
2023/12/16 03:45:45;;;;;;;12.40;6.30;;;;;;;6.56;72.78;98445.50;5041247;28;20184;-69
2023/12/16 03:48:11;;;;;;;7.87;6.60;;;;;;;6.53;72.57;98448.09;5037233;28;20176;-68
2023/12/16 03:50:36;;;;;;;8.00;7.20;;;;;;;6.57;72.57;98451.63;5033698;28;20207;-69
2023/12/16 03:53:02;;;;;;;9.60;7.47;;;;;;;6.55;72.79;98442.91;5029848;28;20316;-70
2023/12/16 03:55:27;;;;;;;16.13;7.60;;;;;;;6.53;72.73;98442.03;5014349;28;20188;-69
2023/12/16 03:57:53;;;;;;;9.00;7.30;;;;;;;6.30;73.44;98447.97;5035217;28;20199;-69
2023/12/16 04:00:18;;;;;;;11.10;8.63;;;;;;;6.27;74.18;98444.50;5012287;28;20660;-69
2023/12/16 04:02:44;;;;;;;11.27;8.10;;;;;;;6.30;73.90;98441.91;5034815;28;20179;-70
2023/12/16 04:05:09;;;;;;;12.23;8.13;;;;;;;6.28;74.22;98436.69;5033960;28;20175;-70
2023/12/16 04:07:34;;;;;;;10.33;8.33;;;;;;;6.26;74.34;98433.19;5034250;28;20588;-69
2023/12/16 04:10:00;;;;;;;11.17;8.67;;;;;;;6.28;74.29;98435.78;5033591;28;20171;-68
2023/12/16 04:12:25;;;;;;;12.83;9.00;;;;;;;6.42;74.13;98443.69;5013712;28;20205;-70
2023/12/16 04:14:51;;;;;;;9.70;8.70;;;;;;;6.38;73.87;98440.22;5031574;28;21917;-69
2023/12/16 04:17:16;;;;;;;10.37;8.10;;;;;;;6.33;74.34;98447.13;5031021;28;20183;-68
2023/12/16 04:19:52;;;;;;;12.70;9.10;;;;;;;6.36;74.24;98445.41;5029714;28;20868;-70
2023/12/16 04:22:18;;;;;;;17.03;8.73;;;;;;;6.46;73.70;98440.25;5031556;28;20202;-69
2023/12/16 04:24:44;;;;;;;10.50;8.23;;;;;;;6.53;73.18;98447.25;5028184;28;20434;-69
2023/12/16 04:27:10;;;;;;;11.33;9.47;;;;;;;6.45;73.55;98447.22;5029490;28;20431;-69
2023/12/16 04:29:35;;;;;;;7.80;6.97;;;;;;;6.46;73.47;98456.78;5029104;28;20433;-69
2023/12/16 04:32:00;;;;;;;10.23;8.07;;;;;;;6.39;73.76;98459.34;5028022;28;20523;-69
2023/12/16 04:34:26;;;;;;;10.47;8.77;;;;;;;6.41;73.17;98461.09;5030207;28;20180;-70
2023/12/16 04:36:51;;;;;;;8.40;7.50;;;;;;;6.43;73.06;98464.59;5026649;28;20198;-69
2023/12/16 04:39:16;;;;;;;10.67;7.63;;;;;;;6.48;72.70;98469.81;5029102;28;20261;-70
2023/12/16 04:41:42;;;;;;;10.07;7.90;;;;;;;6.51;72.82;98472.44;5021733;28;20943;-69
2023/12/16 04:44:07;;;;;;;10.20;7.30;;;;;;;6.46;73.07;98459.38;5033602;28;20183;-69
2023/12/16 04:46:33;;;;;;;8.67;7.90;;;;;;;6.42;72.75;98451.53;5031812;28;20182;-69
2023/12/16 04:48:58;;;;;;;14.13;8.60;;;;;;;6.43;73.07;98450.69;5033983;28;20175;-69
2023/12/16 04:51:23;;;;;;;9.60;8.27;;;;;;;6.42;72.86;98431.53;5033058;28;20203;-69
2023/12/16 04:53:49;;;;;;;14.10;8.60;;;;;;;6.44;73.16;98432.41;5033140;28;20180;-70
2023/12/16 04:56:14;;;;;;;15.57;10.83;;;;;;;6.33;73.62;98431.47;5029619;28;20186;-69
2023/12/16 04:58:39;;;;;;;11.07;8.27;;;;;;;6.39;73.26;98421.09;5029530;28;20842;-69
2023/12/16 05:01:05;;;;;;;9.70;8.23;;;;;;;6.41;72.79;98427.19;5026769;28;20199;-69
2023/12/16 05:03:32;;;;;;;13.20;8.87;;;;;;;6.38;72.98;98424.56;5030011;28;20283;-69
2023/12/16 05:05:58;;;;;;;11.57;8.73;;;;;;;6.48;72.85;98433.31;5028947;28;20271;-69
2023/12/16 05:08:23;;;;;;;11.07;8.73;;;;;;;6.33;73.28;98444.50;5028731;28;21263;-69
2023/12/16 05:10:49;;;;;;;13.37;10.00;;;;;;;6.30;73.29;98440.16;5028355;28;20195;-69
2023/12/16 05:13:15;;;;;;;13.83;9.53;;;;;;;6.29;73.46;98446.25;5027418;28;20532;-69
2023/12/16 05:15:41;;;;;;;8.80;7.90;;;;;;;6.24;73.68;98454.91;5028746;28;20176;-68
2023/12/16 05:18:06;;;;;;;10.47;8.70;;;;;;;6.21;73.82;98460.94;5028978;28;20215;-69
2023/12/16 05:20:33;;;;;;;12.87;8.03;;;;;;;6.14;73.41;98460.06;5027158;28;20541;-69
2023/12/16 05:23:01;;;;;;;11.20;9.30;;;;;;;6.17;73.78;98450.53;5029202;28;20237;-69
2023/12/16 05:25:28;;;;;;;13.90;9.33;;;;;;;6.11;73.96;98462.63;5027195;28;20465;-69
2023/12/16 05:27:54;;;;;;;10.90;8.77;;;;;;;6.10;73.36;98460.03;5026436;28;20522;-69
2023/12/16 05:30:19;;;;;;;9.73;8.73;;;;;;;6.05;73.71;98465.22;5024115;28;20776;-69
2023/12/16 05:32:44;;;;;;;10.47;9.20;;;;;;;6.05;73.93;98466.94;5028769;28;20190;-69
2023/12/16 05:35:10;;;;;;;12.30;8.37;;;;;;;5.91;74.06;98482.44;5030598;28;20639;-69
2023/12/16 05:37:35;;;;;;;15.30;8.97;;;;;;;5.81;74.65;98483.22;5010854;28;20183;-69
2023/12/16 05:40:03;;;;;;;11.60;8.80;;;;;;;5.86;74.64;98491.97;5027266;28;20262;-69
2023/12/16 05:42:29;;;;;;;12.43;9.13;;;;;;;5.89;74.28;98485.03;5027824;28;20211;-70
2023/12/16 05:44:54;;;;;;;12.47;9.23;;;;;;;5.93;74.31;98489.41;5029465;28;20461;-70
2023/12/16 05:47:19;;;;;;;11.47;9.20;;;;;;;5.99;74.17;98487.75;5030467;28;20823;-68
2023/12/16 05:49:45;;;;;;;10.80;8.73;;;;;;;6.01;74.64;98488.63;5030071;28;20187;-69
2023/12/16 05:52:11;;;;;;;13.13;10.30;;;;;;;5.90;74.30;98485.88;5037725;28;20203;-70
2023/12/16 05:54:36;;;;;;;11.90;8.73;;;;;;;5.83;74.37;98474.53;5041079;28;20179;-69
2023/12/16 05:57:02;;;;;;;13.10;9.10;;;;;;;5.77;74.75;98477.13;5038820;28;21100;-68
2023/12/16 05:59:28;;;;;;;12.77;9.40;;;;;;;5.65;74.98;98470.06;5027940;28;20235;-71
2023/12/16 06:01:53;;;;;;;10.60;9.53;;;;;;;5.57;75.18;98482.13;5029663;28;20195;-70
2023/12/16 06:04:19;;;;;;;13.13;9.90;;;;;;;5.61;75.14;98473.50;5029028;28;20182;-70
2023/12/16 06:06:44;;;;;;;11.13;8.50;;;;;;;5.54;75.46;98476.91;5028329;28;20198;-69
2023/12/16 06:09:09;;;;;;;12.30;9.07;;;;;;;5.60;75.18;98474.38;5029167;28;20626;-69
2023/12/16 06:11:35;;;;;;;11.93;9.70;;;;;;;5.70;74.60;98470.97;5029262;28;20278;-70
2023/12/16 06:14:01;;;;;;;11.70;9.60;;;;;;;5.77;74.72;98456.28;5029012;28;20179;-69
2023/12/16 06:16:26;;;;;;;11.90;8.67;;;;;;;5.65;74.79;98464.00;5027933;28;20184;-70
2023/12/16 06:18:51;;;;;;;14.97;10.63;;;;;;;5.71;74.47;98462.28;5027350;28;20560;-69
2023/12/16 06:21:17;;;;;;;17.63;10.47;;;;;;;5.76;74.63;98461.47;5028009;28;20252;-68
2023/12/16 06:23:42;;;;;;;18.83;9.93;;;;;;;5.77;74.65;98463.22;5027563;28;20179;-68
2023/12/16 06:26:08;;;;;;;17.77;10.33;;;;;;;5.76;74.42;98457.13;5026388;28;20187;-70
2023/12/16 06:28:34;;;;;;;11.27;9.97;;;;;;;5.57;75.02;98455.22;5028094;28;20179;-69
2023/12/16 06:30:59;;;;;;;15.00;9.57;;;;;;;5.54;75.47;98465.63;5043958;28;20199;-69
2023/12/16 06:33:24;;;;;;;21.50;10.40;;;;;;;5.59;74.97;98467.38;5041497;28;20182;-69
2023/12/16 06:35:51;;;;;;;12.20;9.90;;;;;;;5.55;74.93;98478.66;5046475;28;20217;-69
2023/12/16 06:38:16;;;;;;;12.50;10.20;;;;;;;5.58;74.89;98470.88;5030713;28;20207;-68
2023/12/16 06:40:41;;;;;;;12.90;9.00;;;;;;;5.58;74.95;98473.47;5027508;28;20470;-67
2023/12/16 06:43:07;;;;;;;18.93;8.87;;;;;;;5.59;74.60;98471.72;5020624;28;20293;-69
2023/12/16 06:45:33;;;;;;;25.67;10.03;;;;;;;5.50;74.92;98476.00;5026014;28;20187;-68
2023/12/16 06:47:59;;;;;;;14.03;9.80;;;;;;;5.34;74.99;98487.13;5024861;28;20663;-70
2023/12/16 06:50:24;;;;;;;20.57;8.40;;;;;;;5.40;74.92;98484.56;5024282;28;20462;-69
2023/12/16 06:52:49;;;;;;;12.60;8.90;;;;;;;5.31;74.87;98484.47;5028867;28;20179;-69
2023/12/16 06:55:15;;;;;;;9.60;8.17;;;;;;;5.46;74.52;98487.25;5023298;28;20271;-70
2023/12/16 06:57:40;;;;;;;16.80;7.80;;;;;;;5.48;74.27;98489.84;5021199;28;20183;-68
2023/12/16 07:00:07;;;;;;;11.83;7.67;;;;;;;5.37;73.87;98492.34;5027969;28;20274;-68
2023/12/16 07:02:32;;;;;;;12.07;8.20;;;;;;;5.24;74.40;98480.06;5021061;28;20180;-68
2023/12/16 07:04:58;;;;;;;10.97;8.30;;;;;;;5.36;74.08;98495.81;5028466;28;20458;-69
2023/12/16 07:07:25;;;;;;;11.03;8.80;;;;;;;5.14;74.55;98502.50;5029794;28;21033;-68
2023/12/16 07:09:50;;;;;;;12.53;7.97;;;;;;;5.18;75.12;98503.44;5029192;28;20179;-69
2023/12/16 07:12:16;;;;;;;10.33;7.83;;;;;;;5.11;74.37;98499.88;5028297;28;20557;-71
2023/12/16 07:14:43;;;;;;;10.83;8.37;;;;;;;4.97;75.12;98497.13;5030153;28;20253;-70
2023/12/16 07:17:08;;;;;;;9.70;8.23;;;;;;;4.86;75.44;98509.97;5029655;28;20296;-70
2023/12/16 07:19:34;;;;;;;12.13;9.50;;;;;;;4.80;76.40;98504.72;5030163;28;21371;-73
2023/12/16 07:22:00;;;;;;;10.57;8.97;;;;;;;4.81;76.66;98501.25;5031912;28;20211;-71
2023/12/16 07:24:26;;;;;;;16.47;8.87;;;;;;;5.05;76.35;98511.06;5012957;28;20431;-70
2023/12/16 07:26:51;;;;;;;15.73;8.80;;;;;;;5.09;75.27;98514.59;5031100;28;20449;-72
2023/12/16 07:29:16;;;;;;;10.87;9.43;;;;;;;5.29;74.71;98514.81;5028056;28;20199;-70
2023/12/16 07:31:49;;;;;;;11.73;9.67;;;;;;;5.21;75.00;98511.28;5031156;28;20203;-71
2023/12/16 07:34:15;;;;;;;11.80;9.77;;;;;;;5.37;74.61;98491.50;5025758;28;20237;-70
2023/12/16 07:36:40;;;;;;;13.70;10.03;;;;;;;5.31;74.06;98494.88;5030491;28;20461;-69
2023/12/16 07:39:06;;;;;;;10.43;9.10;;;;;;;5.28;74.14;98493.13;5027470;28;20565;-69
2023/12/16 07:41:32;;;;;;;18.13;12.47;;;;;;;5.18;74.89;98506.03;5034774;28;20299;-71
2023/12/16 07:43:57;;;;;;;14.80;12.00;;;;;;;5.23;74.87;98509.56;5036434;28;20222;-69
2023/12/16 07:46:24;;;;;;;13.70;10.73;;;;;;;5.25;75.25;98513.94;5031870;28;20348;-71
2023/12/16 07:48:49;;;;;;;31.40;13.50;;;;;;;5.38;74.96;98514.91;5024832;28;20179;-71
2023/12/16 07:51:16;;;;;;;15.10;11.27;;;;;;;5.36;75.13;98515.75;5032089;28;20445;-71
2023/12/16 07:53:46;;;;;;;14.33;10.33;;;;;;;5.48;74.43;98519.38;5032495;28;20190;-69
2023/12/16 07:56:23;;;;;;;19.80;10.73;;;;;;;5.38;74.85;98527.94;5025774;28;20449;-71
2023/12/16 07:58:50;;;;;;;18.60;12.50;;;;;;;5.38;75.06;98535.75;5007259;28;21014;-69
2023/12/16 08:01:16;;;;;;;17.00;12.70;;;;;;;5.38;75.12;98535.75;5033145;28;20493;-70
2023/12/16 08:03:42;;;;;;;17.77;11.90;;;;;;;5.37;74.99;98534.00;5023780;28;20517;-72
2023/12/16 08:06:11;;;;;;;30.30;14.10;;;;;;;5.37;75.07;98533.16;5031791;28;20445;-71
2023/12/16 08:08:41;;;;;;;18.20;11.13;;;;;;;5.34;75.32;98536.59;5021937;28;20450;-71
2023/12/16 08:11:08;;;;;;;24.13;12.60;;;;;;;5.36;75.21;98536.59;5022827;28;20485;-70
2023/12/16 08:13:36;;;;;;;14.97;10.57;;;;;;;5.40;75.35;98543.59;5031327;28;20901;-71
2023/12/16 08:16:04;;;;;;;17.70;9.83;;;;;;;5.46;75.41;98546.28;5031245;28;20501;-70
2023/12/16 08:18:31;;;;;;;24.60;12.03;;;;;;;5.52;74.40;98534.16;5033527;28;20462;-69
2023/12/16 08:20:56;;;;;;;20.80;12.03;;;;;;;5.70;74.48;98545.66;5026805;28;20590;-70
2023/12/16 08:23:21;;;;;;;22.93;11.07;;;;;;;6.01;73.19;98548.56;5014382;28;20506;-71
2023/12/16 08:25:47;;;;;;;18.10;12.50;;;;;;;6.39;71.59;98540.19;5023521;28;20191;-69
2023/12/16 08:28:13;;;;;;;28.97;13.13;;;;;;;6.64;70.90;98534.28;5023883;28;20184;-71
2023/12/16 08:30:38;;;;;;;24.60;11.70;;;;;;;7.08;68.95;98532.75;5009404;28;20218;-71
2023/12/16 08:33:03;;;;;;;14.30;10.30;;;;;;;7.53;66.59;98538.97;5025607;28;20191;-70
2023/12/16 08:35:29;;;;;;;11.90;9.47;;;;;;;8.42;64.39;98536.47;5025155;28;20196;-68
2023/12/16 08:37:57;;;;;;;16.23;12.30;;;;;;;8.74;62.07;98543.41;5024897;28;20204;-66
2023/12/16 08:40:24;;;;;;;19.40;10.70;;;;;;;9.06;61.41;98540.69;5024932;28;20195;-67
2023/12/16 08:42:50;;;;;;;44.33;14.73;;;;;;;9.51;60.08;98539.63;5026229;28;20434;-68
2023/12/16 08:45:15;;;;;;;20.33;10.20;;;;;;;9.57;59.44;98538.72;5027293;28;20465;-66
2023/12/16 08:47:40;;;;;;;16.83;9.60;;;;;;;9.94;57.45;98538.47;5017720;28;20247;-69
2023/12/16 08:50:07;;;;;;;21.03;11.07;;;;;;;8.72;61.13;98553.00;5027413;28;20179;-69
2023/12/16 08:52:33;;;;;;;18.00;11.00;;;;;;;8.03;63.41;98559.09;5024521;28;20620;-69
2023/12/16 08:54:59;;;;;;;21.57;12.20;;;;;;;7.55;64.98;98568.59;5027675;28;20461;-68
2023/12/16 08:57:25;;;;;;;14.43;11.40;;;;;;;7.57;65.80;98569.50;5014964;28;20486;-67
2023/12/16 08:59:50;;;;;;;13.90;11.07;;;;;;;9.35;60.31;98558.91;5019146;28;20203;-68
2023/12/16 09:02:16;;;;;;;12.60;9.70;;;;;;;11.10;54.23;98547.09;5022901;28;20207;-69
2023/12/16 09:04:41;;;;;;;12.23;10.37;;;;;;;12.16;50.84;98545.63;5023346;28;20183;-70
2023/12/16 09:07:06;;;;;;;11.90;10.47;;;;;;;12.99;49.24;98538.06;5027061;28;20264;-67
2023/12/16 09:09:32;;;;;;;17.93;10.37;;;;;;;13.25;47.84;98548.09;5026253;28;20627;-71
2023/12/16 09:11:57;;;;;;;11.17;8.90;;;;;;;14.66;44.61;98549.31;5023511;28;20266;-69
2023/12/16 09:14:23;;;;;;;10.23;9.20;;;;;;;14.49;44.80;98547.94;5023584;28;20188;-68
2023/12/16 09:16:48;;;;;;;10.97;9.97;;;;;;;14.72;43.93;98543.91;5026096;28;21083;-69
2023/12/16 09:19:13;;;;;;;18.57;10.20;;;;;;;14.73;44.08;98551.75;5026839;28;20214;-66
2023/12/16 09:21:39;;;;;;;14.27;10.53;;;;;;;14.94;43.16;98563.53;5017050;28;20353;-67
2023/12/16 09:24:05;;;;;;;25.13;11.27;;;;;;;15.20;42.77;98561.97;5026769;28;20202;-68
2023/12/16 09:26:30;;;;;;;26.53;11.20;;;;;;;15.15;42.69;98558.59;5027657;28;20314;-68
2023/12/16 09:28:56;;;;;;;15.87;11.40;;;;;;;15.49;41.84;98558.47;5025552;28;20286;-67
2023/12/16 09:31:21;;;;;;;12.70;10.97;;;;;;;15.14;42.80;98563.03;5025425;28;20199;-67
2023/12/16 09:33:47;;;;;;;14.97;11.77;;;;;;;14.90;43.22;98568.97;5019051;28;20195;-67
2023/12/16 09:36:13;;;;;;;15.70;11.10;;;;;;;14.49;44.17;98576.16;5027177;28;20615;-68
2023/12/16 09:38:39;;;;;;;13.10;10.87;;;;;;;13.98;45.52;98569.41;5027134;28;20202;-67
2023/12/16 09:41:13;;;;;;;20.63;12.40;;;;;;;13.66;46.39;98572.78;5025941;28;20462;-67
2023/12/16 09:43:42;;;;;;;21.17;12.73;;;;;;;13.39;47.15;98572.44;5027181;28;20527;-68
2023/12/16 09:46:07;;;;;;;27.03;13.87;;;;;;;12.98;47.86;98566.19;5025550;28;20434;-69
2023/12/16 09:48:33;;;;;;;31.30;14.17;;;;;;;12.75;49.08;98579.78;5024541;28;20981;-69
2023/12/16 09:50:58;;;;;;;25.93;12.80;;;;;;;12.45;49.77;98573.28;5023357;28;20331;-67
2023/12/16 09:53:23;;;;;;;15.67;11.77;;;;;;;12.20;50.13;98576.28;5024379;28;20236;-69
2023/12/16 09:55:49;;;;;;;17.27;12.53;;;;;;;12.04;50.84;98565.13;5013093;28;20183;-68
2023/12/16 09:58:16;;;;;;;19.17;12.30;;;;;;;11.53;51.58;98570.22;5023655;28;20226;-67
2023/12/16 10:00:46;;;;;;;18.27;11.23;;;;;;;10.88;54.79;98571.84;5025774;28;20246;-67
2023/12/16 10:03:14;;;;;;;16.33;11.60;;;;;;;11.56;52.81;98569.28;5027283;28;21180;-68
2023/12/16 10:05:42;;;;;;;13.60;11.43;;;;;;;11.71;52.09;98570.84;5026155;28;20426;-67
2023/12/16 10:08:08;;;;;;;12.93;10.17;;;;;;;11.74;52.91;98568.16;5018486;28;20431;-69
2023/12/16 10:10:34;;;;;;;15.87;11.13;;;;;;;11.93;52.00;98561.81;5009297;28;21175;-69
2023/12/16 10:13:04;;;;;;;13.73;10.60;;;;;;;11.64;52.71;98562.16;5024548;28;20522;-68
2023/12/16 10:15:33;;;;;;;11.07;6.17;;;;;;;12.55;74.72;98547.66;5025631;28;20241;-66
2023/12/16 10:18:02;;;;;;;14.37;11.27;;;;;;;12.14;52.17;98550.09;5026313;28;20466;-67
2023/12/16 10:20:28;;;;;;;12.70;11.43;;;;;;;11.69;53.30;98555.06;5029773;28;20634;-68
2023/12/16 10:22:55;;;;;;;20.03;12.00;;;;;;;11.46;53.25;98555.41;5032709;28;20915;-66
2023/12/16 10:25:21;;;;;;;12.70;9.53;;;;;;;11.60;52.79;98553.47;5029493;28;20475;-67
2023/12/16 10:27:48;;;;;;;18.83;11.33;;;;;;;11.74;52.55;98552.38;5027342;28;20458;-67
2023/12/16 10:30:14;;;;;;;16.77;10.90;;;;;;;11.50;52.35;98550.97;5019274;28;20198;-67
2023/12/16 10:32:40;;;;;;;17.47;11.00;;;;;;;11.54;52.34;98550.91;5029607;28;20784;-67
2023/12/16 10:35:07;;;;;;;23.90;10.23;;;;;;;11.81;51.46;98546.13;5027612;28;20476;-69
2023/12/16 10:37:33;;;;;;;18.60;10.67;;;;;;;11.81;51.82;98541.78;5029580;28;20864;-69
2023/12/16 10:39:59;;;;;;;12.23;10.77;;;;;;;12.17;50.74;98531.59;5018980;28;20459;-68
2023/12/16 10:42:24;;;;;;;15.70;9.10;;;;;;;12.13;50.94;98535.16;5026335;28;20233;-65
2023/12/16 10:44:52;;;;;;;15.03;9.27;;;;;;;11.73;50.35;98532.25;5022299;28;20180;-67
2023/12/16 10:47:18;;;;;;;12.20;8.67;;;;;;;12.31;49.81;98525.22;5017100;28;21861;-67
2023/12/16 10:49:45;;;;;;;15.70;9.10;;;;;;;12.24;49.66;98514.81;5026441;28;20485;-69
2023/12/16 10:52:19;;;;;;;11.63;8.37;;;;;;;12.10;49.85;98516.81;5028028;28;20450;-67
2023/12/16 10:54:47;;;;;;;15.97;9.43;;;;;;;11.94;50.01;98512.69;5025993;28;20437;-66
2023/12/16 10:57:26;;;;;;;38.57;12.37;;;;;;;11.39;51.80;98514.31;5030457;28;20469;-67
2023/12/16 11:00:04;;;;;;;56.07;11.40;;;;;;;11.28;53.12;98519.69;5027016;28;20465;-68
2023/12/16 11:02:31;;;;;;;25.10;11.03;;;;;;;11.06;53.15;98512.97;5027654;28;20436;-67
2023/12/16 11:05:22;;;;;;;26.60;9.93;;;;;;;11.11;53.01;98503.28;5026837;28;20488;-68
2023/12/16 11:07:48;;;;;;;15.07;9.90;;;;;;;11.50;51.93;98511.53;5021445;28;21016;-67
2023/12/16 11:10:14;;;;;;;43.77;11.50;;;;;;;11.39;51.52;98509.91;5020467;28;20514;-65
2023/12/16 11:12:40;;;;;;;11.80;7.73;;;;;;;11.34;51.29;98513.47;5024383;28;20430;-68
2023/12/16 11:15:08;;;;;;;9.90;8.67;;;;;;;11.48;51.58;98506.31;5026437;28;20437;-68
2023/12/16 11:17:53;;;;;;;16.50;9.77;;;;;;;11.79;50.72;98509.34;5028285;28;20430;-68
2023/12/16 11:20:21;;;;;;;32.17;11.70;;;;;;;10.81;53.97;98510.63;5020636;28;21317;-67
2023/12/16 11:22:51;;;;;;;18.10;8.70;;;;;;;11.60;51.70;98502.63;5025694;28;20442;-68
2023/12/16 11:25:21;;;;;;;11.80;9.00;;;;;;;11.89;50.10;98502.22;5025978;28;20440;-67